Flight Track Log - Related Links

Times and Time Zones

All times are in EDT time to prevent confusion due to time zone crossing. See the CJT620 flight status page for this flight to view local times or setup timezone preferences in your user account.

Time Position Orientation Groundspeed Altitude Reporting Facility
EDT Latitude Longitude Course Direction KTS MPH feet Rate Location/Type
Wed 12:43:38 AM 43.1500 -79.8833 32° Northeast 160 184 1,800  Level Toronto Center
Wed 12:44:38 AM 43.1333 -79.8167 109° East 180 207 3,300 1,350 Climbing Toronto Center
Wed 12:45:38 AM 43.1333 -79.7500 90° East 200 230 4,500 1,100 Climbing Toronto Center
Wed 12:46:38 AM 43.1667 -79.6833 56° Northeast 230 265 5,500 1,311 Climbing Toronto Center
Wed 12:47:00 AM 43.3947 -79.0537 27° Northeast  Level FlightAware Approximate
Wed 12:47:37 AM 43.2167 -79.5833 56° Northeast 270 311 7,100  Level Toronto Center
Wed 12:48:00 AM 43.5071 -78.9549 33° Northeast  Level FlightAware Approximate
Wed 12:48:37 AM 43.2667 -79.5000 50° Northeast 300 345 9,200  Level Toronto Center
Wed 12:49:00 AM 43.6224 -78.8689 32° Northeast  Level FlightAware Approximate
Wed 12:49:37 AM 43.3333 -79.4000 47° Northeast 320 368 10,700  Level Toronto Center
Wed 12:50:37 AM 43.3833 -79.3167 50° Northeast 350 403 11,600 1,100 Climbing Toronto Center
Wed 12:51:37 AM 43.4500 -79.1667 58° Northeast 390 449 12,900 1,450 Climbing Toronto Center
Wed 12:52:37 AM 43.5333 -79.0500 45° Northeast 400 460 14,500 1,250 Climbing Toronto Center
Wed 12:53:37 AM 43.6000 -78.9500 47° Northeast 420 483 15,400 1,150 Climbing Toronto Center
Wed 12:54:37 AM 43.6833 -78.8000 52° Northeast 440 506 16,800 1,200 Climbing Toronto Center
Wed 12:55:37 AM 43.7333 -78.6167 69° East 460 529 17,800 1,300 Climbing Toronto Center
Wed 12:56:37 AM 43.7500 -78.4500 82° East 480 552 19,400 1,350 Climbing Toronto Center
Wed 12:57:37 AM 43.8000 -78.3000 65° Northeast 470 541 20,500 1,250 Climbing Toronto Center
Wed 12:58:37 AM 43.8500 -78.1000 71° East 480 552 21,900 1,250 Climbing Toronto Center
Wed 12:59:37 AM 43.8833 -77.9500 73° East 490 564 23,000 1,050 Climbing Toronto Center
Wed 01:00:37 AM 43.9333 -77.7333 72° East 500 575 24,000 1,050 Climbing Toronto Center
Wed 01:01:37 AM 43.9833 -77.5667 67° East 510 587 25,100 1,000 Climbing Toronto Center
Wed 01:02:37 AM 44.0167 -77.3667 77° East 510 587 26,000 850 Climbing Toronto Center
Wed 01:03:37 AM 44.0667 -77.1667 71° East 520 598 26,800 800 Climbing Toronto Center
Wed 01:04:37 AM 44.1167 -76.9833 69° East 530 610 27,600 878 Climbing Toronto Center
Wed 01:04:59 AM 44.1333 -76.9500 55° Northeast 530 610 28,000 1,000 Climbing Montreal Center
Wed 01:05:37 AM 44.1500 -76.8000 81° East 540 621 28,600 1,163 Climbing Toronto Center
Wed 01:06:37 AM 44.1833 -76.5833 78° East 530 610 29,900 1,098 Climbing Toronto Center
Wed 01:06:59 AM 44.2167 -76.5500 36° Northeast 530 610 30,100 585 Climbing Montreal Center
Wed 01:07:59 AM 44.2500 -76.3500 77° East 540 621 30,700 378 Climbing Montreal Center
Wed 01:09:22 AM 44.3333 -76.0656 68° East 529 609 31,000 126 Climbing Boston Center
Wed 01:10:22 AM 44.3772 -75.8619 73° East 534 615 31,000  Level Boston Center
Wed 01:10:59 AM 44.3833 -75.7333 86° East 550 633 31,000  Level Montreal Center
Wed 01:11:59 AM 44.4333 -75.5167 72° East 550 633 31,000  Level Montreal Center
Wed 01:12:23 AM 44.4658 -75.4481 56° Northeast 544 626 31,000  Level Boston Center
Wed 01:13:24 AM 44.5086 -75.2378 74° East 551 634 31,000  Level Boston Center
Wed 01:14:24 AM 44.5508 -75.0358 74° East 551 634 31,000  Level Boston Center
Wed 01:15:23 AM 44.5950 -74.8278 73° East 551 634 31,000  Level Boston Center
Wed 01:16:23 AM 44.6367 -74.6194 74° East 551 634 31,000  Level Boston Center
Wed 01:17:22 AM 44.6733 -74.4367 74° East 545 627 31,000  Level Boston Center
Wed 01:18:23 AM 44.7142 -74.2278 75° East 545 627 31,000  Level Boston Center
Wed 01:19:22 AM 44.7589 -74.0186 73° East 551 634 31,000  Level Boston Center
Wed 01:19:59 AM 44.7833 -73.8667 77° East 560 644 31,000  Level Montreal Center
Wed 01:20:59 AM 44.8167 -73.6500 78° East 560 644 31,000  Level Montreal Center
Wed 01:21:22 AM 44.8389 -73.6022 57° Northeast 551 634 31,000  Level Boston Center
Wed 01:22:22 AM 44.8803 -73.3892 75° East 551 634 31,000  Level Boston Center
Wed 01:22:59 AM 44.9000 -73.2333 80° East 560 644 31,000  Level Montreal Center
Wed 01:23:59 AM 44.9500 -73.0167 72° East 560 644 31,000 50 Level Montreal Center
Wed 01:24:59 AM 44.9833 -72.8000 78° East 570 656 31,100 550 Climbing Montreal Center
Wed 01:25:59 AM 45.0167 -72.5500 79° East 570 656 32,100 700 Climbing Montreal Center
Wed 01:26:59 AM 45.0667 -72.3667 69° East 570 656 32,500 429 Climbing Montreal Center
Wed 01:27:23 AM 45.0842 -72.2931 71° East 567 652 32,700 353 Climbing Boston Center
Wed 01:28:24 AM 45.1231 -72.0753 76° East 567 652 33,000 151 Climbing Boston Center
Wed 01:29:22 AM 45.1639 -71.8514 75° East 567 652 33,000  Level Boston Center
Wed 01:29:59 AM 45.1667 -71.6833 89° East 580 667 33,000  Level Montreal Center
Wed 01:30:59 AM 45.2167 -71.4667 72° East 580 667 33,000  Level Montreal Center
Wed 01:31:22 AM 45.2400 -71.4114 59° Northeast 567 652 33,000  Level Boston Center
Wed 01:31:59 AM 45.2500 -71.2500 85° East 580 667 33,000  Level Montreal Center
Wed 01:32:59 AM 45.3000 -71.0333 72° East 580 667 33,000  Level Montreal Center
Wed 01:33:59 AM 45.3333 -70.8000 78° East 580 667 33,000  Level Montreal Center
Wed 01:34:24 AM 45.3469 -70.7628 63° Northeast 567 652 33,000  Level Boston Center
Wed 01:35:23 AM 45.3850 -70.5342 77° East 567 652 33,000  Level Boston Center
Wed 01:36:23 AM 45.4231 -70.3111 76° East 567 652 33,000  Level Boston Center
Wed 01:37:22 AM 45.4583 -70.0878 77° East 572 658 33,000  Level Boston Center
Wed 01:38:23 AM 45.4931 -69.8614 78° East 572 658 33,000  Level Boston Center
Wed 01:39:23 AM 45.5308 -69.6136 78° East 578 665 33,000  Level Boston Center
Wed 01:40:23 AM 45.5667 -69.3806 78° East 578 665 33,000  Level Boston Center
Wed 01:41:22 AM 45.6003 -69.1564 78° East 584 672 33,000  Level Boston Center
Wed 01:42:22 AM 45.6353 -68.9286 78° East 584 672 33,000  Level Boston Center
Wed 01:43:23 AM 45.6678 -68.7008 78° East 584 672 33,000  Level Boston Center
Wed 01:44:23 AM 45.7017 -68.4697 78° East 584 672 33,000  Level Boston Center
Wed 01:45:23 AM 45.7267 -68.2867 79° East 584 672 33,000  Level Boston Center
Wed 01:46:22 AM 45.7611 -68.0342 79° East 584 672 33,000  Level Boston Center
Wed 01:47:22 AM 45.7936 -67.8022 79° East 589 678 33,000  Level Boston Center
Wed 01:47:49 AM 45.8000 -67.6833 86° East 580 667 33,000  Level Moncton Center
Wed 01:48:49 AM 45.8167 -67.4500 84° East 580 667 33,000  Level Moncton Center
Wed 01:49:49 AM 45.8500 -67.2333 77° East 580 667 33,000 -500 Level Moncton Center
Wed 01:50:49 AM 45.8833 -67.0000 78° East 580 667 32,000 -1,600 Descending Moncton Center
Wed 01:51:49 AM 45.9167 -66.7833 77° East 570 656 29,800 -1,450 Descending Moncton Center
Wed 01:52:49 AM 45.9333 -66.5667 84° East 560 644 29,100 -2,367 Descending Moncton Center
Wed 01:54:49 AM 46.0000 -66.1333 77° East 550 633 22,700 -2,833 Descending Moncton Center
Wed 01:55:49 AM 46.0167 -65.9167 84° East 550 633 20,600 -2,100 Descending Moncton Center
Wed 01:56:49 AM 46.0500 -65.7000 77° East 520 598 18,500 -2,250 Descending Moncton Center
Wed 01:57:49 AM 46.0667 -65.5333 82° East 500 575 16,100 -2,150 Descending Moncton Center
Wed 01:58:49 AM 46.0833 -65.3167 84° East 480 552 14,200 -2,000 Descending Moncton Center
Wed 01:59:49 AM 46.1000 -65.1500 82° East 450 518 12,100 -1,900 Descending Moncton Center
Wed 02:00:49 AM 46.1333 -64.9833 74° East 430 495 10,400 -1,400 Descending Moncton Center
Wed 02:01:49 AM 46.1500 -64.8333 81° East 360 414 9,300 -2,050 Descending Moncton Center
Wed 02:02:49 AM 46.1667 -64.7333 76° East 300 345 6,300 -2,550 Descending Moncton Center
Wed 02:03:49 AM 46.1833 -64.6167 78° East 280 322 4,200 -1,450 Descending Moncton Center
Wed 02:04:49 AM 46.1833 -64.5167 90° East 250 288 3,400 -700 Descending Moncton Center
Wed 02:05:49 AM 46.1833 -64.4500 90° East 210 242 2,800 -600 Descending Moncton Center
Wed 02:06:49 AM 46.1500 -64.4000 134° Southeast 180 207 2,200 -550 Descending Moncton Center
Wed 02:07:49 AM 46.1167 -64.4167 199° South 160 184 1,700 -200 Descending Moncton Center
Wed 02:08:49 AM 46.1000 -64.5000 254° West 160 184 1,800  Climbing Moncton Center
Wed 02:09:49 AM 46.1000 -64.5500 270° West 170 196 1,700 -450 Descending Moncton Center
Wed 02:10:49 AM 46.1000 -64.6167 270° West 140 161 900 -750 Descending Moncton Center
Wed 02:11:49 AM 46.1000 -64.6667 270° West 150 173 200 -700 Descending Moncton Center

Login

Don't have an account? Register now (free) for customized features, flight alerts, and more!